Time;durP1;ratioP1;P1;durP2;ratioP2;P2;SDS_P1;SDS_P2;PMS_P1;PMS_P2;Temp;Humidity;BMP_temperature;BMP_pressure;BME280_temperature;BME280_humidity;BME280_pressure;Samples;Min_cycle;Max_cycle;Signal;HPM_P1;HPM_P2
2021/06/16 00:00:06;;;;;;;5.20;2.30;;;16.20;99.90;;;;;;5051608;28;20434;-85
2021/06/16 00:02:32;;;;;;;3.53;3.07;;;16.30;99.90;;;;;;5050536;28;20524;-86
2021/06/16 00:04:59;;;;;;;3.03;2.83;;;16.40;99.90;;;;;;5051810;28;20454;-86
2021/06/16 00:07:27;;;;;;;4.60;2.80;;;16.40;99.90;;;;;;5047088;28;20458;-85
2021/06/16 00:09:54;;;;;;;7.30;2.60;;;16.40;99.90;;;;;;5047584;28;20516;-85
2021/06/16 00:12:24;;;;;;;2.50;2.30;;;16.40;99.90;;;;;;5046987;28;20516;-85
2021/06/16 00:14:51;;;;;;;3.57;2.90;;;16.40;99.90;;;;;;5047773;28;20504;-86
2021/06/16 00:17:17;;;;;;;6.00;2.70;;;16.40;99.90;;;;;;5047564;28;20442;-85
2021/06/16 00:19:44;;;;;;;3.50;2.67;;;16.30;99.90;;;;;;5046993;28;20446;-85
2021/06/16 00:22:12;;;;;;;3.37;2.47;;;16.40;99.90;;;;;;5047654;28;20474;-86
2021/06/16 00:24:40;;;;;;;3.07;2.80;;;16.30;99.90;;;;;;5045927;28;20454;-85
2021/06/16 00:27:07;;;;;;;2.57;2.37;;;16.30;99.90;;;;;;5045574;28;20566;-85
2021/06/16 00:29:33;;;;;;;4.03;2.60;;;16.20;99.90;;;;;;5046409;28;20478;-85
2021/06/16 00:32:00;;;;;;;3.90;2.73;;;16.30;99.90;;;;;;5058479;28;20453;-84
2021/06/16 00:34:27;;;;;;;3.60;2.27;;;16.10;99.90;;;;;;5050188;28;20450;-85
2021/06/16 00:36:54;;;;;;;5.93;2.30;;;16.10;99.90;;;;;;5046954;28;20512;-85
2021/06/16 00:39:20;;;;;;;3.47;2.60;;;16.00;99.90;;;;;;5048816;28;20446;-84
2021/06/16 00:41:48;;;;;;;3.60;2.40;;;16.00;99.90;;;;;;5045554;28;20470;-85
2021/06/16 00:44:15;;;;;;;4.27;2.80;;;15.90;99.90;;;;;;5045843;28;20454;-86
2021/06/16 00:46:41;;;;;;;2.97;2.73;;;16.00;99.90;;;;;;5045981;28;20504;-84
2021/06/16 00:49:09;;;;;;;4.73;2.07;;;16.00;99.90;;;;;;5044973;28;20489;-85
2021/06/16 00:51:35;;;;;;;4.40;2.70;;;16.00;99.90;;;;;;5045480;28;20521;-85
2021/06/16 00:54:09;;;;;;;5.17;2.33;;;16.00;99.90;;;;;;5046421;28;20455;-85
2021/06/16 00:56:36;;;;;;;4.67;2.60;;;16.00;99.90;;;;;;5051657;28;20426;-84
2021/06/16 00:59:04;;;;;;;4.00;2.80;;;16.00;99.90;;;;;;5040222;28;20473;-84
2021/06/16 01:01:33;;;;;;;6.63;2.50;;;16.00;99.90;;;;;;5041292;28;20478;-84
2021/06/16 01:04:06;;;;;;;2.40;2.20;;;16.00;99.90;;;;;;5042874;28;20976;-84
2021/06/16 01:06:39;;;;;;;5.93;3.00;;;16.00;99.90;;;;;;5045321;28;20450;-85
2021/06/16 01:09:11;;;;;;;3.03;2.50;;;15.80;99.90;;;;;;5045127;28;20528;-85
2021/06/16 01:11:57;;;;;;;3.80;2.33;;;15.70;99.90;;;;;;5045270;28;20466;-86
2021/06/16 01:14:31;;;;;;;3.10;2.80;;;15.70;99.90;;;;;;5045965;28;20430;-85
2021/06/16 01:17:01;;;;;;;3.70;2.60;;;15.80;99.90;;;;;;5045424;28;20448;-85
2021/06/16 01:19:45;;;;;;;5.17;2.17;;;15.70;99.90;;;;;;5044564;28;20438;-85
2021/06/16 01:22:19;;;;;;;2.30;2.20;;;15.80;99.90;;;;;;5049553;28;20474;-85
2021/06/16 01:24:51;;;;;;;5.63;2.40;;;15.70;99.90;;;;;;5055250;28;20429;-84
2021/06/16 01:27:20;;;;;;;3.33;2.50;;;15.70;99.90;;;;;;5055166;28;20404;-85
2021/06/16 01:29:47;;;;;;;3.07;2.13;;;15.70;99.90;;;;;;5052109;28;20536;-84
2021/06/16 01:32:14;;;;;;;2.63;2.43;;;15.60;99.90;;;;;;5046807;28;20462;-85
2021/06/16 01:34:41;;;;;;;3.70;2.53;;;15.50;99.90;;;;;;5045614;28;20442;-85
2021/06/16 01:37:09;;;;;;;2.20;2.00;;;15.50;99.90;;;;;;5044961;28;20542;-85
2021/06/16 01:39:39;;;;;;;8.73;2.33;;;15.50;99.90;;;;;;5044168;28;20473;-85
2021/06/16 01:42:10;;;;;;;5.73;2.97;;;15.50;99.90;;;;;;5044480;28;20520;-86
2021/06/16 01:44:38;;;;;;;3.77;3.00;;;15.50;99.90;;;;;;5046331;28;20431;-85
2021/06/16 01:47:06;;;;;;;6.00;2.80;;;15.50;99.90;;;;;;5046547;28;20446;-84
2021/06/16 01:49:34;;;;;;;4.87;2.80;;;15.50;99.90;;;;;;5044714;28;20478;-84
2021/06/16 01:52:02;;;;;;;3.17;2.87;;;15.40;99.90;;;;;;5043459;28;20489;-84
2021/06/16 01:54:31;;;;;;;2.90;2.37;;;15.40;99.90;;;;;;5043534;28;20446;-83
2021/06/16 01:56:59;;;;;;;3.10;2.20;;;15.40;99.90;;;;;;5044394;28;20496;-84
2021/06/16 01:59:27;;;;;;;4.00;2.80;;;15.40;99.90;;;;;;5055496;28;20443;-83
2021/06/16 02:01:55;;;;;;;5.83;2.30;;;15.30;99.90;;;;;;5046363;28;20538;-84
2021/06/16 02:04:22;;;;;;;2.73;2.23;;;15.10;99.90;;;;;;5045610;28;20458;-85
2021/06/16 02:06:54;;;;;;;4.07;2.03;;;15.10;99.90;;;;;;5049089;28;20468;-84
2021/06/16 02:09:25;;;;;;;3.93;2.30;;;15.10;99.90;;;;;;5046669;28;20470;-83
2021/06/16 02:11:51;;;;;;;2.57;2.00;;;15.20;99.90;;;;;;5047378;28;20466;-83
2021/06/16 02:14:20;;;;;;;2.90;2.50;;;15.20;99.90;;;;;;5048466;28;20539;-84
2021/06/16 02:16:51;;;;;;;2.80;2.17;;;15.10;99.90;;;;;;5050648;28;20435;-84
2021/06/16 02:19:22;;;;;;;2.50;2.30;;;15.10;99.90;;;;;;5058423;28;20541;-83
2021/06/16 02:21:49;;;;;;;3.60;2.37;;;15.10;99.90;;;;;;5058160;28;20454;-82
2021/06/16 02:24:15;;;;;;;3.07;2.87;;;15.10;99.90;;;;;;5058196;28;20435;-83
2021/06/16 02:26:42;;;;;;;2.60;2.40;;;15.00;99.90;;;;;;5057607;28;20448;-84
2021/06/16 02:29:10;;;;;;;2.73;2.50;;;14.90;99.90;;;;;;5055790;28;20512;-84
2021/06/16 02:31:38;;;;;;;5.77;2.47;;;14.90;99.90;;;;;;5055683;28;20463;-83
2021/06/16 02:34:04;;;;;;;2.03;1.83;;;14.80;99.90;;;;;;5056408;28;20434;-84
2021/06/16 02:36:37;;;;;;;2.83;2.63;;;14.90;99.90;;;;;;5056447;28;20469;-84
2021/06/16 02:39:08;;;;;;;3.23;2.93;;;14.90;99.90;;;;;;5057325;28;20426;-83
2021/06/16 02:41:36;;;;;;;3.33;2.60;;;14.90;99.90;;;;;;5057475;28;20460;-82
2021/06/16 02:44:05;;;;;;;2.93;2.63;;;14.90;99.90;;;;;;5056932;28;20450;-84
2021/06/16 02:46:34;;;;;;;2.83;2.33;;;14.90;99.90;;;;;;5056083;28;20437;-84
2021/06/16 02:49:03;;;;;;;2.83;2.63;;;14.90;99.90;;;;;;5056679;28;20481;-84
2021/06/16 02:51:33;;;;;;;2.50;2.30;;;14.80;99.90;;;;;;5056299;28;20473;-84
2021/06/16 02:54:01;;;;;;;5.60;2.70;;;14.80;99.90;;;;;;5056172;28;20836;-84
2021/06/16 02:56:29;;;;;;;2.80;2.53;;;14.80;99.90;;;;;;5056052;28;20442;-84
2021/06/16 02:58:56;;;;;;;2.77;2.13;;;14.70;99.90;;;;;;5056031;28;20430;-84
2021/06/16 03:01:24;;;;;;;3.10;2.50;;;14.70;99.90;;;;;;5056424;28;20463;-85
2021/06/16 03:03:52;;;;;;;2.30;2.10;;;14.70;99.90;;;;;;5056651;28;20427;-84
2021/06/16 03:06:21;;;;;;;2.50;2.00;;;14.80;99.90;;;;;;5056461;28;20450;-85
2021/06/16 03:08:51;;;;;;;2.97;2.67;;;14.70;99.90;;;;;;5056495;28;20447;-84
2021/06/16 03:11:18;;;;;;;2.60;2.40;;;14.60;99.90;;;;;;5056757;28;20554;-84
2021/06/16 03:13:46;;;;;;;3.10;2.30;;;14.60;99.90;;;;;;5056211;28;20431;-84
2021/06/16 03:16:15;;;;;;;3.10;2.70;;;14.60;99.90;;;;;;5056769;28;20450;-84
2021/06/16 03:18:43;;;;;;;5.53;2.90;;;14.70;99.90;;;;;;5056331;28;20439;-84
2021/06/16 03:21:11;;;;;;;5.67;2.47;;;14.70;99.90;;;;;;5055200;28;20463;-84
2021/06/16 03:23:38;;;;;;;4.50;2.33;;;14.70;99.90;;;;;;5055491;28;20458;-84
2021/06/16 03:26:06;;;;;;;3.83;2.70;;;14.80;99.90;;;;;;5055630;28;20430;-84
2021/06/16 03:28:35;;;;;;;2.30;2.00;;;14.60;99.90;;;;;;5055701;28;20562;-84
2021/06/16 03:31:02;;;;;;;5.60;2.73;;;14.60;99.90;;;;;;5055609;28;20477;-84
2021/06/16 03:33:30;;;;;;;2.47;2.27;;;14.60;99.90;;;;;;5054823;28;20435;-84
2021/06/16 03:35:58;;;;;;;7.40;2.42;;;14.60;99.90;;;;;;5055454;28;20437;-84
2021/06/16 03:38:26;;;;;;;3.83;2.23;;;14.60;99.90;;;;;;5056028;28;20188;-84
2021/06/16 03:40:54;;;;;;;4.00;1.95;;;14.50;99.90;;;;;;5056071;28;20472;-83
2021/06/16 03:43:23;;;;;;;3.70;2.67;;;14.70;99.90;;;;;;5056791;28;20188;-84
2021/06/16 03:45:50;;;;;;;2.93;1.93;;;14.70;99.90;;;;;;5055662;28;20418;-84
2021/06/16 03:48:19;;;;;;;4.70;2.60;;;14.80;99.90;;;;;;5056518;28;20442;-84
2021/06/16 03:50:47;;;;;;;3.93;2.70;;;14.90;99.90;;;;;;5057127;28;20477;-83
2021/06/16 03:53:14;;;;;;;4.80;2.30;;;14.90;99.90;;;;;;5056832;28;20459;-84
2021/06/16 03:55:43;;;;;;;5.20;2.22;;;14.90;99.90;;;;;;5055243;28;20445;-84
2021/06/16 03:58:10;;;;;;;2.30;2.10;;;14.90;99.90;;;;;;5055611;28;20199;-84
2021/06/16 04:00:39;;;;;;;2.60;2.30;;;15.00;99.90;;;;;;5055799;28;20443;-84
2021/06/16 04:03:10;;;;;;;6.80;2.53;;;15.00;99.90;;;;;;5056422;28;20496;-84
2021/06/16 04:05:37;;;;;;;4.07;2.30;;;15.00;99.90;;;;;;5057116;28;20593;-84
2021/06/16 04:08:06;;;;;;;2.80;2.40;;;14.90;99.90;;;;;;5057123;28;20442;-84
2021/06/16 04:10:33;;;;;;;6.60;2.65;;;15.00;99.90;;;;;;5056618;28;20468;-85
2021/06/16 04:13:01;;;;;;;2.47;2.27;;;15.00;99.90;;;;;;5056676;28;20215;-84
2021/06/16 04:15:28;;;;;;;2.40;2.20;;;14.90;99.90;;;;;;5056582;28;20451;-84
2021/06/16 04:17:58;;;;;;;4.57;2.60;;;15.00;99.90;;;;;;5056541;28;20438;-84
2021/06/16 04:20:25;;;;;;;4.93;2.47;;;15.10;99.90;;;;;;5056814;28;20452;-84
2021/06/16 04:22:52;;;;;;;6.20;2.93;;;15.00;99.90;;;;;;5056546;28;20480;-84
2021/06/16 04:25:19;;;;;;;3.58;1.95;;;15.10;99.90;;;;;;5055414;28;20472;-84
2021/06/16 04:27:45;;;;;;;5.90;2.53;;;15.10;99.90;;;;;;5055890;28;20215;-84
2021/06/16 04:30:14;;;;;;;4.10;2.30;;;15.10;99.90;;;;;;5055970;28;20474;-84
2021/06/16 04:32:42;;;;;;;3.80;2.40;;;15.10;99.90;;;;;;5056288;28;20462;-84
2021/06/16 04:35:11;;;;;;;3.90;2.40;;;15.20;99.90;;;;;;5059717;28;20434;-84
2021/06/16 04:37:37;;;;;;;2.00;1.90;;;15.20;99.90;;;;;;5059826;28;20447;-84
2021/06/16 04:40:06;;;;;;;4.60;2.60;;;15.20;99.90;;;;;;5060372;28;20465;-84
2021/06/16 04:42:33;;;;;;;5.20;2.90;;;15.30;99.90;;;;;;5060462;28;20585;-84
2021/06/16 04:45:00;;;;;;;3.70;2.70;;;15.30;99.90;;;;;;5060665;28;20415;-83
2021/06/16 04:47:29;;;;;;;3.87;2.50;;;15.30;99.90;;;;;;5060453;28;20457;-83
2021/06/16 04:49:55;;;;;;;2.30;2.10;;;15.40;99.90;;;;;;5060308;28;20462;-83
2021/06/16 04:52:23;;;;;;;2.77;2.50;;;15.40;99.90;;;;;;5060165;28;20470;-83
2021/06/16 04:54:50;;;;;;;5.40;2.50;;;15.40;99.90;;;;;;5060185;28;20442;-84
2021/06/16 04:57:16;;;;;;;4.40;2.57;;;15.40;99.90;;;;;;5060043;28;20435;-84
2021/06/16 04:59:43;;;;;;;3.17;2.50;;;15.40;99.90;;;;;;5060141;28;20427;-84
2021/06/16 05:02:10;;;;;;;2.80;2.37;;;15.50;99.90;;;;;;5059681;28;20465;-83
2021/06/16 05:04:36;;;;;;;4.17;3.07;;;15.50;99.90;;;;;;5060148;28;20431;-84
2021/06/16 05:07:03;;;;;;;5.03;2.40;;;15.30;99.90;;;;;;5059828;28;20434;-83
2021/06/16 05:09:31;;;;;;;4.63;2.40;;;15.30;99.90;;;;;;5059938;28;20422;-83
2021/06/16 05:11:58;;;;;;;3.77;2.50;;;15.40;99.90;;;;;;5059845;28;20481;-84
2021/06/16 05:14:24;;;;;;;4.43;2.30;;;15.40;99.90;;;;;;5059672;28;20426;-82
2021/06/16 05:16:53;;;;;;;5.43;2.90;;;15.60;99.90;;;;;;5059298;28;20449;-84
2021/06/16 05:19:22;;;;;;;4.77;3.27;;;15.70;99.90;;;;;;5059516;28;20449;-83
2021/06/16 05:21:49;;;;;;;5.07;2.93;;;15.90;99.90;;;;;;5059570;28;20505;-83
2021/06/16 05:24:16;;;;;;;6.43;3.77;;;15.90;99.90;;;;;;5059666;28;20434;-82
2021/06/16 05:26:44;;;;;;;5.57;3.23;;;15.90;99.90;;;;;;5059451;28;20442;-82
2021/06/16 05:29:11;;;;;;;7.70;6.00;;;16.10;99.90;;;;;;5059023;28;20447;-83
2021/06/16 05:31:39;;;;;;;4.30;2.50;;;16.10;99.90;;;;;;5059234;28;20477;-83
2021/06/16 05:34:06;;;;;;;3.40;3.00;;;16.20;99.90;;;;;;5059248;28;20431;-83
2021/06/16 05:36:33;;;;;;;4.47;2.30;;;16.40;99.90;;;;;;5059528;28;20451;-82
2021/06/16 05:39:00;;;;;;;4.13;2.77;;;16.40;99.90;;;;;;5059425;28;20441;-83
2021/06/16 05:41:27;;;;;;;5.80;2.40;;;16.40;99.90;;;;;;5059278;28;20489;-84
2021/06/16 05:43:55;;;;;;;4.87;2.37;;;16.50;99.90;;;;;;5058868;28;20446;-85
2021/06/16 05:46:21;;;;;;;2.70;2.50;;;16.60;99.90;;;;;;5059167;28;20442;-85
2021/06/16 05:48:48;;;;;;;3.97;2.50;;;16.50;99.90;;;;;;5059558;28;20419;-84
2021/06/16 05:51:14;;;;;;;6.30;2.77;;;16.40;99.90;;;;;;5059082;28;20486;-84
2021/06/16 05:53:41;;;;;;;6.70;2.47;;;16.40;99.90;;;;;;5058995;28;20423;-84
2021/06/16 05:56:08;;;;;;;4.30;2.60;;;16.60;99.90;;;;;;5059162;28;20464;-84
2021/06/16 05:58:35;;;;;;;4.33;2.17;;;16.80;99.90;;;;;;5058511;28;20447;-83
2021/06/16 06:01:05;;;;;;;3.07;2.60;;;16.90;99.90;;;;;;5058363;28;20442;-83
2021/06/16 06:03:31;;;;;;;5.83;2.40;;;16.90;99.90;;;;;;5058379;28;20419;-83
2021/06/16 06:05:58;;;;;;;2.50;2.30;;;17.10;99.90;;;;;;5058629;28;20462;-83
2021/06/16 06:08:24;;;;;;;3.47;2.00;;;17.20;99.90;;;;;;5058354;28;20434;-85
2021/06/16 06:10:53;;;;;;;3.10;2.63;;;17.30;99.90;;;;;;5058107;28;20487;-83
2021/06/16 06:13:31;;;;;;;3.33;2.10;;;17.30;99.90;;;;;;5057755;28;20481;-84
2021/06/16 06:15:59;;;;;;;5.57;2.23;;;17.30;99.90;;;;;;5057786;28;20428;-83
2021/06/16 06:18:28;;;;;;;2.20;1.97;;;17.50;99.90;;;;;;5057106;28;20428;-84
2021/06/16 06:20:56;;;;;;;3.70;2.53;;;17.60;99.90;;;;;;5054774;28;20426;-84
2021/06/16 06:23:24;;;;;;;5.90;2.23;;;17.70;99.90;;;;;;5054411;28;20504;-84
2021/06/16 06:25:52;;;;;;;2.30;2.10;;;17.80;99.90;;;;;;5054963;28;20458;-84
2021/06/16 06:28:20;;;;;;;6.00;2.17;;;17.90;99.90;;;;;;5054705;28;21010;-84
2021/06/16 06:30:48;;;;;;;5.17;2.10;;;17.60;99.90;;;;;;5054763;28;20475;-85
2021/06/16 06:33:16;;;;;;;4.70;2.30;;;17.60;99.90;;;;;;5055117;28;20511;-85
2021/06/16 06:35:45;;;;;;;8.63;2.10;;;17.80;99.90;;;;;;5057225;28;20532;-85
2021/06/16 06:38:14;;;;;;;4.00;3.70;;;17.90;99.90;;;;;;5052369;28;20448;-85
2021/06/16 06:40:42;;;;;;;2.33;2.13;;;18.20;99.90;;;;;;5055748;28;20462;-85
2021/06/16 06:43:10;;;;;;;6.60;2.40;;;18.20;99.90;;;;;;5056243;28;20534;-85
2021/06/16 06:45:37;;;;;;;3.90;2.20;;;18.20;99.90;;;;;;5054522;28;20436;-85
2021/06/16 06:48:04;;;;;;;4.00;2.23;;;18.20;99.90;;;;;;5052031;28;20436;-85
2021/06/16 06:50:30;;;;;;;4.67;2.00;;;18.20;99.90;;;;;;5050131;28;20524;-85
2021/06/16 06:52:58;;;;;;;10.30;2.30;;;18.30;99.90;;;;;;5049605;28;20555;-85
2021/06/16 06:55:25;;;;;;;3.37;2.10;;;18.40;99.90;;;;;;5050274;28;20448;-84
2021/06/16 06:57:51;;;;;;;6.27;2.20;;;18.50;99.90;;;;;;5049474;28;20498;-85
2021/06/16 07:00:19;;;;;;;4.60;2.60;;;18.60;99.90;;;;;;5042384;28;20440;-85
2021/06/16 07:02:47;;;;;;;6.37;2.60;;;18.60;99.90;;;;;;5044074;28;20473;-84
2021/06/16 07:05:14;;;;;;;2.73;2.30;;;18.60;99.90;;;;;;5045903;28;20841;-84
2021/06/16 07:07:41;;;;;;;1.80;1.63;;;18.80;99.90;;;;;;5047327;28;20463;-84
2021/06/16 07:10:11;;;;;;;2.20;2.10;;;18.90;99.90;;;;;;5055394;28;20436;-85
2021/06/16 07:12:38;;;;;;;3.23;2.20;;;19.00;99.90;;;;;;5052467;28;20470;-85
2021/06/16 07:15:06;;;;;;;6.10;2.23;;;19.10;99.90;;;;;;5051720;28;20448;-85
2021/06/16 07:17:33;;;;;;;4.30;2.40;;;19.10;99.90;;;;;;5045807;28;20456;-85
2021/06/16 07:20:00;;;;;;;3.13;2.50;;;19.20;99.90;;;;;;5039035;28;20460;-85
2021/06/16 07:22:26;;;;;;;3.33;2.63;;;19.10;99.90;;;;;;5046669;28;20473;-85
2021/06/16 07:24:53;;;;;;;6.60;2.20;;;19.10;99.90;;;;;;5046022;28;20446;-85
2021/06/16 07:27:21;;;;;;;5.43;2.40;;;19.20;99.90;;;;;;5039686;28;20498;-85
2021/06/16 07:29:47;;;;;;;5.77;2.00;;;19.30;99.90;;;;;;5036531;28;20449;-85
2021/06/16 07:32:16;;;;;;;7.50;2.40;;;19.40;99.90;;;;;;5036046;28;20490;-85
2021/06/16 07:34:43;;;;;;;6.07;2.20;;;19.50;99.90;;;;;;5036408;28;20458;-85
2021/06/16 07:37:09;;;;;;;3.50;1.80;;;19.50;99.90;;;;;;5041097;28;20452;-85
2021/06/16 07:39:36;;;;;;;26.50;3.30;;;19.70;99.90;;;;;;5043572;28;20494;-85
2021/06/16 07:42:02;;;;;;;8.90;2.73;;;19.80;99.90;;;;;;5043309;28;20949;-85
2021/06/16 07:44:30;;;;;;;3.33;2.30;;;19.80;99.90;;;;;;5045990;28;20476;-85
2021/06/16 07:46:57;;;;;;;2.40;2.20;;;19.90;99.90;;;;;;5046489;28;20450;-84
2021/06/16 07:49:25;;;;;;;9.80;2.33;;;20.00;99.90;;;;;;5056000;28;20493;-85
2021/06/16 07:51:52;;;;;;;5.50;2.10;;;20.20;99.90;;;;;;5052659;28;20497;-84
2021/06/16 07:54:19;;;;;;;3.90;2.50;;;20.40;99.90;;;;;;5052218;28;20598;-85
2021/06/16 07:56:46;;;;;;;16.27;3.30;;;20.50;99.90;;;;;;5053027;28;20540;-84
2021/06/16 07:59:13;;;;;;;4.57;2.00;;;20.50;99.90;;;;;;5048238;28;20596;-85
2021/06/16 08:01:43;;;;;;;2.57;2.37;;;20.40;99.90;;;;;;5045787;28;20498;-85
2021/06/16 08:04:10;;;;;;;7.33;2.60;;;20.40;99.90;;;;;;5042157;28;20458;-85
2021/06/16 08:06:36;;;;;;;6.23;2.93;;;20.50;99.90;;;;;;5041803;28;20438;-85
2021/06/16 08:09:04;;;;;;;4.30;2.73;;;20.60;99.90;;;;;;5045062;28;20504;-85
2021/06/16 08:11:30;;;;;;;3.50;2.50;;;20.70;99.90;;;;;;5046270;28;20487;-85
2021/06/16 08:13:57;;;;;;;6.30;2.87;;;20.80;99.90;;;;;;5045483;28;20430;-85
2021/06/16 08:16:24;;;;;;;3.73;2.40;;;20.90;99.90;;;;;;5042508;28;20945;-85
2021/06/16 08:18:53;;;;;;;9.87;3.70;;;21.00;99.90;;;;;;5040538;28;20492;-84
2021/06/16 08:21:19;;;;;;;3.97;2.73;;;21.10;99.90;;;;;;5039196;28;20592;-84
2021/06/16 08:23:47;;;;;;;5.20;2.37;;;21.20;99.90;;;;;;5040052;28;20461;-84
2021/06/16 08:26:14;;;;;;;9.07;3.03;;;21.20;99.90;;;;;;5039557;28;20542;-85
2021/06/16 08:28:41;;;;;;;4.50;2.63;;;21.30;99.90;;;;;;5038808;28;20476;-85
2021/06/16 08:31:08;;;;;;;7.77;2.97;;;21.30;99.90;;;;;;5038126;28;20486;-80
2021/06/16 08:33:36;;;;;;;5.53;2.97;;;21.30;99.90;;;;;;5038379;28;20479;-85
2021/06/16 08:36:04;;;;;;;5.00;3.13;;;21.40;99.90;;;;;;5039922;28;20537;-82
2021/06/16 08:38:31;;;;;;;6.13;2.60;;;21.40;99.90;;;;;;5039892;28;20434;-82
2021/06/16 08:41:03;;;;;;;3.63;2.97;;;21.50;99.90;;;;;;5040318;28;20447;-84
2021/06/16 08:43:36;;;;;;;2.80;2.20;;;21.50;99.90;;;;;;5040608;28;20435;-84
2021/06/16 08:46:05;;;;;;;4.63;3.30;;;21.50;99.90;;;;;;5040714;28;20438;-84
2021/06/16 08:48:32;;;;;;;5.37;2.50;;;21.60;99.90;;;;;;5040044;28;20476;-83
2021/06/16 08:50:59;;;;;;;4.63;2.83;;;21.70;99.90;;;;;;5040425;28;20482;-85
2021/06/16 08:53:27;;;;;;;28.00;4.17;;;21.70;99.90;;;;;;5040567;28;20442;-82
2021/06/16 08:55:57;;;;;;;9.13;3.77;;;21.90;99.90;;;;;;5041549;28;20443;-82
2021/06/16 08:58:23;;;;;;;18.67;4.00;;;22.00;99.90;;;;;;5040440;28;20972;-81
2021/06/16 09:00:50;;;;;;;10.27;2.80;;;22.00;99.90;;;;;;5039846;28;20439;-82
2021/06/16 09:03:17;;;;;;;9.13;2.87;;;22.10;99.90;;;;;;5039993;28;20441;-82
2021/06/16 09:05:44;;;;;;;2.40;2.30;;;22.10;99.90;;;;;;5041431;28;20483;-83
2021/06/16 09:08:19;;;;;;;3.33;3.03;;;22.20;99.90;;;;;;5050240;28;20450;-82
2021/06/16 09:10:49;;;;;;;5.33;4.23;;;22.20;99.90;;;;;;5037144;28;20515;-82
2021/06/16 09:13:27;;;;;;;6.13;4.13;;;22.30;99.90;;;;;;5037704;28;20451;-82
2021/06/16 09:15:54;;;;;;;5.90;3.30;;;22.40;99.90;;;;;;5039214;28;20435;-82
2021/06/16 09:18:21;;;;;;;12.00;2.97;;;22.50;99.90;;;;;;5038621;28;20450;-82
2021/06/16 09:20:52;;;;;;;12.00;3.27;;;22.50;99.90;;;;;;5037888;28;20489;-79
2021/06/16 09:23:23;;;;;;;4.37;2.33;;;22.50;99.90;;;;;;5037692;28;20435;-80
2021/06/16 09:28:43;;;;;;;5.90;2.40;;;22.60;99.90;;;;;;5170839;27;99426;-79
2021/06/16 09:31:11;;;;;;;15.43;4.20;;;22.60;99.90;;;;;;5149014;27;20464;-79
2021/06/16 09:33:38;;;;;;;5.53;2.90;;;22.70;99.90;;;;;;5132889;28;20446;-79
2021/06/16 09:36:12;;;;;;;3.83;3.47;;;22.70;99.90;;;;;;5133845;28;20486;-80
2021/06/16 09:38:39;;;;;;;3.43;3.07;;;22.80;99.90;;;;;;5133127;28;20522;-79
2021/06/16 09:41:10;;;;;;;2.30;2.20;;;22.80;99.90;;;;;;5133275;27;20531;-80
2021/06/16 09:43:39;;;;;;;7.00;5.20;;;22.80;99.90;;;;;;5134387;28;20487;-79
2021/06/16 09:46:08;;;;;;;7.53;3.07;;;22.80;99.90;;;;;;5133050;28;20523;-79
2021/06/16 09:48:37;;;;;;;4.77;3.20;;;22.80;99.90;;;;;;5133560;28;20513;-79
2021/06/16 09:51:17;;;;;;;2.37;2.20;;;22.90;99.90;;;;;;5133619;27;20448;-79
2021/06/16 09:53:57;;;;;;;2.87;2.67;;;22.90;99.90;;;;;;5133407;28;20440;-79
2021/06/16 09:56:24;;;;;;;4.33;2.70;;;23.00;99.90;;;;;;5133730;28;20432;-79
2021/06/16 09:58:52;;;;;;;4.03;3.63;;;23.00;99.90;;;;;;5133498;28;20443;-80
2021/06/16 10:01:20;;;;;;;2.73;2.50;;;22.90;99.90;;;;;;5145510;22;20453;-80
2021/06/16 10:03:47;;;;;;;11.57;3.33;;;23.10;99.90;;;;;;5109051;28;20807;-81
2021/06/16 10:06:16;;;;;;;2.50;2.30;;;23.10;99.90;;;;;;5107433;28;20439;-81
2021/06/16 10:08:45;;;;;;;3.93;2.40;;;23.20;99.90;;;;;;5099916;28;20893;-82
2021/06/16 10:11:13;;;;;;;3.60;2.20;;;23.30;99.90;;;;;;5097479;28;20432;-82
2021/06/16 10:13:40;;;;;;;2.40;2.20;;;23.20;99.90;;;;;;5097750;28;20588;-84
2021/06/16 10:16:09;;;;;;;2.93;2.73;;;23.20;99.90;;;;;;5098432;28;20455;-81
2021/06/16 10:18:42;;;;;;;5.37;2.93;;;23.30;99.90;;;;;;5097879;28;20441;-82
2021/06/16 10:21:10;;;;;;;2.63;2.20;;;23.40;99.90;;;;;;5096482;28;20499;-82
2021/06/16 10:23:38;;;;;;;2.27;2.07;;;23.50;99.90;;;;;;5095492;28;20595;-82
2021/06/16 10:26:08;;;;;;;6.23;2.60;;;23.50;99.90;;;;;;5096129;28;20449;-82
2021/06/16 10:28:38;;;;;;;3.30;2.97;;;23.50;99.90;;;;;;5098239;28;20513;-80
2021/06/16 10:31:06;;;;;;;3.73;3.03;;;23.50;99.90;;;;;;5100660;28;20435;-82
2021/06/16 10:33:35;;;;;;;4.63;3.20;;;23.60;99.90;;;;;;5109078;28;20433;-81
2021/06/16 10:36:16;;;;;;;4.33;2.60;;;23.70;99.90;;;;;;5108055;28;20441;-82
2021/06/16 10:39:06;;;;;;;2.33;2.13;;;23.70;99.90;;;;;;5098408;28;20443;-80
2021/06/16 10:42:00;;;;;;;2.73;2.20;;;23.80;99.90;;;;;;5093270;28;20533;-82
2021/06/16 10:44:29;;;;;;;7.70;2.33;;;23.60;99.90;;;;;;5086483;28;20438;-81
2021/06/16 10:46:57;;;;;;;4.07;2.47;;;23.60;99.50;;;;;;5084844;28;20496;-82
2021/06/16 10:49:50;;;;;;;4.60;2.50;;;23.70;99.90;;;;;;5083404;28;20481;-82
2021/06/16 10:52:21;;;;;;;3.67;3.10;;;23.80;99.90;;;;;;5085892;28;20471;-81
2021/06/16 10:54:55;;;;;;;2.80;2.60;;;23.90;99.90;;;;;;5085317;28;20434;-82
2021/06/16 10:57:23;;;;;;;7.03;5.27;;;23.90;99.90;;;;;;5088442;28;20469;-80
2021/06/16 11:00:07;;;;;;;6.10;2.10;;;23.90;99.90;;;;;;5089401;28;20464;-81
2021/06/16 11:03:08;;;;;;;2.90;2.10;;;23.80;98.50;;;;;;5088260;28;20496;-82
2021/06/16 11:05:47;;;;;;;4.43;2.20;;;23.80;98.90;;;;;;5095590;28;20768;-80
2021/06/16 11:08:53;;;;;;;2.57;2.33;;;23.60;99.00;;;;;;5096866;28;20472;-81
2021/06/16 11:11:21;;;;;;;6.07;4.50;;;23.70;99.90;;;;;;5095104;28;20494;-82
2021/06/16 11:13:51;;;;;;;3.47;3.17;;;23.90;99.90;;;;;;5094861;28;20448;-82
2021/06/16 11:16:48;;;;;;;4.50;2.53;;;24.00;99.70;;;;;;5090390;28;20442;-83
2021/06/16 11:19:25;;;;;;;4.83;2.43;;;24.00;99.70;;;;;;5089234;28;20490;-82
2021/06/16 11:21:54;;;;;;;8.20;2.50;;;24.20;99.20;;;;;;5087810;28;20465;-83
2021/06/16 11:24:21;;;;;;;4.00;3.70;;;24.30;99.50;;;;;;5087155;28;20473;-82
2021/06/16 11:26:50;;;;;;;7.40;3.93;;;24.40;99.90;;;;;;5086076;28;20440;-82
2021/06/16 11:29:55;;;;;;;11.13;8.87;;;24.50;99.90;;;;;;5093711;28;20765;-81
2021/06/16 11:32:22;;;;;;;2.73;2.53;;;24.50;99.90;;;;;;5093870;28;20463;-82
2021/06/16 11:34:51;;;;;;;2.57;2.37;;;24.40;98.30;;;;;;5092136;28;20443;-83
2021/06/16 11:37:55;;;;;;;7.53;5.33;;;24.40;99.50;;;;;;5090558;28;20437;-82
2021/06/16 11:40:26;;;;;;;5.63;4.43;;;24.50;99.90;;;;;;5092301;28;20443;-81
2021/06/16 11:42:52;;;;;;;4.23;3.00;;;24.50;99.90;;;;;;5093759;28;20461;-82
2021/06/16 11:45:19;;;;;;;4.93;3.70;;;24.60;99.90;;;;;;5087613;28;20452;-81
2021/06/16 11:47:54;;;;;;;5.27;3.80;;;24.60;99.80;;;;;;5082853;28;20849;-81
2021/06/16 11:50:29;;;;;;;2.57;2.37;;;24.70;99.90;;;;;;5079020;28;20466;-83
2021/06/16 11:52:57;;;;;;;4.23;3.80;;;24.70;98.00;;;;;;5084616;28;20463;-81
2021/06/16 11:55:39;;;;;;;2.70;2.50;;;24.80;98.00;;;;;;5082389;28;20463;-80
2021/06/16 11:58:20;;;;;;;6.50;2.60;;;24.90;99.50;;;;;;5090303;28;20511;-83
2021/06/16 12:00:48;;;;;;;5.03;3.20;;;24.90;99.80;;;;;;5083802;28;20424;-81
2021/06/16 12:03:17;;;;;;;2.67;2.20;;;25.00;99.90;;;;;;5081488;28;20479;-81
2021/06/16 12:05:43;;;;;;;4.40;3.70;;;24.90;97.20;;;;;;5080196;28;20451;-82
2021/06/16 12:08:10;;;;;;;3.07;2.77;;;25.00;99.90;;;;;;5087373;28;20482;-83
2021/06/16 12:10:37;;;;;;;6.10;3.20;;;25.10;99.90;;;;;;5090040;28;20455;-81
2021/06/16 12:13:05;;;;;;;3.83;3.47;;;25.10;98.60;;;;;;5091434;28;20470;-82
2021/06/16 12:15:34;;;;;;;3.33;3.07;;;25.20;99.40;;;;;;5091744;28;20445;-82
2021/06/16 12:18:02;;;;;;;4.43;3.67;;;25.20;99.80;;;;;;5084355;28;20497;-83
2021/06/16 12:20:32;;;;;;;3.13;2.33;;;25.20;99.90;;;;;;5086125;28;20452;-81
2021/06/16 12:22:59;;;;;;;3.27;2.83;;;25.20;98.20;;;;;;5088086;28;20464;-83
2021/06/16 12:25:27;;;;;;;4.13;3.60;;;25.30;98.60;;;;;;5083771;28;20448;-83
2021/06/16 12:27:55;;;;;;;4.20;3.80;;;25.30;97.50;;;;;;5084288;28;20891;-84
2021/06/16 12:30:22;;;;;;;6.53;3.20;;;25.30;99.80;;;;;;5085074;28;20473;-80
2021/06/16 12:33:11;;;;;;;3.47;2.80;;;25.30;99.20;;;;;;5083333;28;20469;-83
2021/06/16 12:35:42;;;;;;;4.60;3.30;;;25.20;96.60;;;;;;5080598;28;20919;-83
2021/06/16 12:38:10;;;;;;;3.80;3.20;;;25.30;99.30;;;;;;5078285;28;20523;-83
2021/06/16 12:40:39;;;;;;;5.80;3.53;;;25.50;99.70;;;;;;5089518;28;20467;-81
2021/06/16 12:43:08;;;;;;;6.70;3.63;;;25.50;99.80;;;;;;5086785;28;20461;-83
2021/06/16 12:45:39;;;;;;;8.37;4.90;;;25.60;99.90;;;;;;5077919;28;20453;-83
2021/06/16 12:48:23;;;;;;;3.40;2.70;;;25.60;99.90;;;;;;5078062;28;20533;-83
2021/06/16 12:50:57;;;;;;;4.20;2.73;;;25.50;96.20;;;;;;5077699;28;20850;-83
2021/06/16 12:53:25;;;;;;;5.40;4.67;;;25.50;96.70;;;;;;5077739;28;20460;-82
2021/06/16 12:55:54;;;;;;;5.37;4.70;;;25.60;99.70;;;;;;5079048;28;20453;-83
2021/06/16 12:58:23;;;;;;;4.30;3.90;;;25.70;97.70;;;;;;5080655;28;20441;-82